sensor_id;sensor_type;location;lat;lon;timestamp;temperature;humidity
64961;SHT31;51487;52.266;10.542;2023-05-03T00:02:21;6.94;75.09
64961;SHT31;51487;52.266;10.542;2023-05-03T00:04:47;6.80;75.57
64961;SHT31;51487;52.266;10.542;2023-05-03T00:07:13;6.85;75.70
64961;SHT31;51487;52.266;10.542;2023-05-03T00:09:38;6.81;75.94
64961;SHT31;51487;52.266;10.542;2023-05-03T00:12:05;6.73;76.13
64961;SHT31;51487;52.266;10.542;2023-05-03T00:14:31;6.57;76.54
64961;SHT31;51487;52.266;10.542;2023-05-03T00:16:56;6.58;76.69
64961;SHT31;51487;52.266;10.542;2023-05-03T00:19:22;6.60;76.61
64961;SHT31;51487;52.266;10.542;2023-05-03T00:21:51;6.68;76.24
64961;SHT31;51487;52.266;10.542;2023-05-03T00:24:17;6.60;76.23
64961;SHT31;51487;52.266;10.542;2023-05-03T00:26:43;6.56;76.17
64961;SHT31;51487;52.266;10.542;2023-05-03T00:29:08;6.46;76.70
64961;SHT31;51487;52.266;10.542;2023-05-03T00:31:33;6.53;76.50
64961;SHT31;51487;52.266;10.542;2023-05-03T00:33:59;6.37;76.88
64961;SHT31;51487;52.266;10.542;2023-05-03T00:36:25;6.37;77.00
64961;SHT31;51487;52.266;10.542;2023-05-03T00:38:52;6.40;76.94
64961;SHT31;51487;52.266;10.542;2023-05-03T00:41:18;6.36;77.18
64961;SHT31;51487;52.266;10.542;2023-05-03T00:43:43;6.37;77.17
64961;SHT31;51487;52.266;10.542;2023-05-03T00:46:09;6.32;77.25
64961;SHT31;51487;52.266;10.542;2023-05-03T00:48:36;6.20;77.64
64961;SHT31;51487;52.266;10.542;2023-05-03T00:51:03;6.32;77.47
64961;SHT31;51487;52.266;10.542;2023-05-03T00:53:29;6.22;77.71
64961;SHT31;51487;52.266;10.542;2023-05-03T00:55:58;6.30;77.51
64961;SHT31;51487;52.266;10.542;2023-05-03T00:58:24;6.26;77.71
64961;SHT31;51487;52.266;10.542;2023-05-03T01:00:51;6.26;77.69
64961;SHT31;51487;52.266;10.542;2023-05-03T01:03:17;6.33;77.61
64961;SHT31;51487;52.266;10.542;2023-05-03T01:08:35;6.19;78.33
64961;SHT31;51487;52.266;10.542;2023-05-03T01:11:22;6.09;78.72
64961;SHT31;51487;52.266;10.542;2023-05-03T01:14:27;5.91;79.49
64961;SHT31;51487;52.266;10.542;2023-05-03T01:17:01;5.87;79.77
64961;SHT31;51487;52.266;10.542;2023-05-03T01:19:43;5.87;79.80
64961;SHT31;51487;52.266;10.542;2023-05-03T01:22:26;5.82;79.95
64961;SHT31;51487;52.266;10.542;2023-05-03T01:25:06;5.99;79.41
64961;SHT31;51487;52.266;10.542;2023-05-03T01:27:32;6.03;78.99
64961;SHT31;51487;52.266;10.542;2023-05-03T01:29:58;5.99;78.97
64961;SHT31;51487;52.266;10.542;2023-05-03T01:32:45;6.06;78.79
64961;SHT31;51487;52.266;10.542;2023-05-03T01:35:50;5.99;78.82
64961;SHT31;51487;52.266;10.542;2023-05-03T01:38:17;5.92;79.04
64961;SHT31;51487;52.266;10.542;2023-05-03T01:40:54;5.88;79.08
64961;SHT31;51487;52.266;10.542;2023-05-03T01:43:24;5.78;79.33
64961;SHT31;51487;52.266;10.542;2023-05-03T01:45:51;5.79;79.47
64961;SHT31;51487;52.266;10.542;2023-05-03T01:48:18;5.64;79.83
64961;SHT31;51487;52.266;10.542;2023-05-03T01:50:44;5.62;80.20
64961;SHT31;51487;52.266;10.542;2023-05-03T01:53:10;5.58;80.33
64961;SHT31;51487;52.266;10.542;2023-05-03T01:55:36;5.65;80.25
64961;SHT31;51487;52.266;10.542;2023-05-03T01:58:01;5.67;80.48
64961;SHT31;51487;52.266;10.542;2023-05-03T02:00:27;5.68;80.25
64961;SHT31;51487;52.266;10.542;2023-05-03T02:02:53;5.75;80.16
64961;SHT31;51487;52.266;10.542;2023-05-03T02:05:18;5.70;80.18
64961;SHT31;51487;52.266;10.542;2023-05-03T02:07:44;5.58;80.62
64961;SHT31;51487;52.266;10.542;2023-05-03T02:10:10;5.50;81.28
64961;SHT31;51487;52.266;10.542;2023-05-03T02:12:43;5.62;80.83
64961;SHT31;51487;52.266;10.542;2023-05-03T02:15:10;5.50;81.07
64961;SHT31;51487;52.266;10.542;2023-05-03T02:17:37;5.51;81.39
64961;SHT31;51487;52.266;10.542;2023-05-03T02:20:04;5.47;81.41
64961;SHT31;51487;52.266;10.542;2023-05-03T02:22:31;5.40;81.67
64961;SHT31;51487;52.266;10.542;2023-05-03T02:24:57;5.37;81.95
64961;SHT31;51487;52.266;10.542;2023-05-03T02:27:23;5.39;82.32
64961;SHT31;51487;52.266;10.542;2023-05-03T02:29:49;5.33;82.51
64961;SHT31;51487;52.266;10.542;2023-05-03T02:32:14;5.40;81.96
64961;SHT31;51487;52.266;10.542;2023-05-03T02:34:40;5.31;82.25
64961;SHT31;51487;52.266;10.542;2023-05-03T02:37:06;5.34;82.30
64961;SHT31;51487;52.266;10.542;2023-05-03T02:39:31;5.29;82.62
64961;SHT31;51487;52.266;10.542;2023-05-03T02:41:57;5.27;82.67
64961;SHT31;51487;52.266;10.542;2023-05-03T02:44:23;5.20;83.12
64961;SHT31;51487;52.266;10.542;2023-05-03T02:46:48;5.29;82.57
64961;SHT31;51487;52.266;10.542;2023-05-03T02:49:14;5.29;82.49
64961;SHT31;51487;52.266;10.542;2023-05-03T02:51:40;5.22;82.73
64961;SHT31;51487;52.266;10.542;2023-05-03T02:54:06;5.20;82.75
64961;SHT31;51487;52.266;10.542;2023-05-03T02:56:32;5.19;83.00
64961;SHT31;51487;52.266;10.542;2023-05-03T02:58:58;5.12;83.30
64961;SHT31;51487;52.266;10.542;2023-05-03T03:01:23;5.10;83.23
64961;SHT31;51487;52.266;10.542;2023-05-03T03:03:49;5.10;83.20
64961;SHT31;51487;52.266;10.542;2023-05-03T03:06:14;5.13;83.14
64961;SHT31;51487;52.266;10.542;2023-05-03T03:08:40;5.05;83.23
64961;SHT31;51487;52.266;10.542;2023-05-03T03:11:06;5.13;83.16
64961;SHT31;51487;52.266;10.542;2023-05-03T03:13:32;4.96;83.57
64961;SHT31;51487;52.266;10.542;2023-05-03T03:15:57;4.88;84.03
64961;SHT31;51487;52.266;10.542;2023-05-03T03:18:23;4.96;83.94
64961;SHT31;51487;52.266;10.542;2023-05-03T03:20:48;4.96;83.97
64961;SHT31;51487;52.266;10.542;2023-05-03T03:23:14;4.93;83.92
64961;SHT31;51487;52.266;10.542;2023-05-03T03:25:41;4.88;84.10
64961;SHT31;51487;52.266;10.542;2023-05-03T03:28:07;5.02;83.81
64961;SHT31;51487;52.266;10.542;2023-05-03T03:30:32;4.99;83.94
64961;SHT31;51487;52.266;10.542;2023-05-03T03:32:58;4.92;84.00
64961;SHT31;51487;52.266;10.542;2023-05-03T03:35:24;5.00;83.65
64961;SHT31;51487;52.266;10.542;2023-05-03T03:37:50;4.93;83.86
64961;SHT31;51487;52.266;10.542;2023-05-03T03:40:15;4.92;84.15
64961;SHT31;51487;52.266;10.542;2023-05-03T03:42:41;5.08;83.53
64961;SHT31;51487;52.266;10.542;2023-05-03T03:45:07;4.95;83.66
64961;SHT31;51487;52.266;10.542;2023-05-03T03:47:33;4.88;84.19
64961;SHT31;51487;52.266;10.542;2023-05-03T03:49:59;4.85;84.87
64961;SHT31;51487;52.266;10.542;2023-05-03T03:52:26;4.93;84.13
64961;SHT31;51487;52.266;10.542;2023-05-03T03:54:52;5.05;83.61
64961;SHT31;51487;52.266;10.542;2023-05-03T03:57:17;4.97;84.02
64961;SHT31;51487;52.266;10.542;2023-05-03T03:59:43;4.99;84.11
64961;SHT31;51487;52.266;10.542;2023-05-03T04:02:09;5.00;83.90
64961;SHT31;51487;52.266;10.542;2023-05-03T04:04:34;5.09;84.00
64961;SHT31;51487;52.266;10.542;2023-05-03T04:07:01;5.00;83.95
64961;SHT31;51487;52.266;10.542;2023-05-03T04:09:27;5.03;84.19
64961;SHT31;51487;52.266;10.542;2023-05-03T04:11:52;5.02;84.21
64961;SHT31;51487;52.266;10.542;2023-05-03T04:14:18;5.10;83.89
64961;SHT31;51487;52.266;10.542;2023-05-03T04:16:43;5.08;83.78
64961;SHT31;51487;52.266;10.542;2023-05-03T04:19:11;5.18;83.69
64961;SHT31;51487;52.266;10.542;2023-05-03T04:21:37;5.16;83.70
64961;SHT31;51487;52.266;10.542;2023-05-03T04:24:03;5.23;83.31
64961;SHT31;51487;52.266;10.542;2023-05-03T04:26:31;5.23;83.56
64961;SHT31;51487;52.266;10.542;2023-05-03T04:28:58;5.18;83.60
64961;SHT31;51487;52.266;10.542;2023-05-03T04:31:24;5.12;84.06
64961;SHT31;51487;52.266;10.542;2023-05-03T04:33:49;5.15;83.79
64961;SHT31;51487;52.266;10.542;2023-05-03T04:36:15;5.12;83.69
64961;SHT31;51487;52.266;10.542;2023-05-03T04:38:41;5.18;83.42
64961;SHT31;51487;52.266;10.542;2023-05-03T04:41:08;5.20;83.15
64961;SHT31;51487;52.266;10.542;2023-05-03T04:43:35;5.20;83.33
64961;SHT31;51487;52.266;10.542;2023-05-03T04:46:02;5.23;83.23
64961;SHT31;51487;52.266;10.542;2023-05-03T04:48:28;5.13;83.38
64961;SHT31;51487;52.266;10.542;2023-05-03T04:50:54;5.22;83.21
64961;SHT31;51487;52.266;10.542;2023-05-03T04:53:20;5.12;83.45
64961;SHT31;51487;52.266;10.542;2023-05-03T04:55:45;4.92;84.02
64961;SHT31;51487;52.266;10.542;2023-05-03T04:58:12;5.05;83.91
64961;SHT31;51487;52.266;10.542;2023-05-03T05:00:38;4.97;84.03
64961;SHT31;51487;52.266;10.542;2023-05-03T05:03:04;5.26;83.22
64961;SHT31;51487;52.266;10.542;2023-05-03T05:05:30;5.23;83.25
64961;SHT31;51487;52.266;10.542;2023-05-03T05:07:56;5.31;83.34
64961;SHT31;51487;52.266;10.542;2023-05-03T05:10:22;5.43;82.93
64961;SHT31;51487;52.266;10.542;2023-05-03T05:12:48;5.46;83.09
64961;SHT31;51487;52.266;10.542;2023-05-03T05:15:13;5.55;82.05
64961;SHT31;51487;52.266;10.542;2023-05-03T05:17:39;5.58;81.94
64961;SHT31;51487;52.266;10.542;2023-05-03T05:20:06;5.51;82.48
64961;SHT31;51487;52.266;10.542;2023-05-03T05:22:34;5.61;82.27
64961;SHT31;51487;52.266;10.542;2023-05-03T05:25:00;5.65;82.59
64961;SHT31;51487;52.266;10.542;2023-05-03T05:27:26;5.85;82.15
64961;SHT31;51487;52.266;10.542;2023-05-03T05:29:52;5.88;81.85
64961;SHT31;51487;52.266;10.542;2023-05-03T05:32:17;5.84;82.16
64961;SHT31;51487;52.266;10.542;2023-05-03T05:34:43;5.88;81.82
64961;SHT31;51487;52.266;10.542;2023-05-03T05:37:13;5.97;81.65
64961;SHT31;51487;52.266;10.542;2023-05-03T05:39:39;6.03;81.04
64961;SHT31;51487;52.266;10.542;2023-05-03T05:42:04;6.12;80.73
64961;SHT31;51487;52.266;10.542;2023-05-03T05:44:30;6.20;79.86
64961;SHT31;51487;52.266;10.542;2023-05-03T05:46:56;6.18;80.50
64961;SHT31;51487;52.266;10.542;2023-05-03T05:49:21;6.25;80.23
64961;SHT31;51487;52.266;10.542;2023-05-03T05:51:47;6.33;80.08
64961;SHT31;51487;52.266;10.542;2023-05-03T05:54:12;6.29;80.30
64961;SHT31;51487;52.266;10.542;2023-05-03T05:56:38;6.58;79.58
64961;SHT31;51487;52.266;10.542;2023-05-03T05:59:03;6.67;79.24
64961;SHT31;51487;52.266;10.542;2023-05-03T06:01:30;6.70;78.93
64961;SHT31;51487;52.266;10.542;2023-05-03T06:03:56;6.84;78.20
64961;SHT31;51487;52.266;10.542;2023-05-03T06:06:22;6.85;78.31
64961;SHT31;51487;52.266;10.542;2023-05-03T06:08:47;6.91;78.42
64961;SHT31;51487;52.266;10.542;2023-05-03T06:11:16;6.97;78.32
64961;SHT31;51487;52.266;10.542;2023-05-03T06:13:42;7.08;78.01
64961;SHT31;51487;52.266;10.542;2023-05-03T06:16:09;7.20;77.44
64961;SHT31;51487;52.266;10.542;2023-05-03T06:18:35;7.30;76.56
64961;SHT31;51487;52.266;10.542;2023-05-03T06:21:01;7.14;76.44
64961;SHT31;51487;52.266;10.542;2023-05-03T06:23:26;7.36;76.48
64961;SHT31;51487;52.266;10.542;2023-05-03T06:25:52;7.55;75.09
64961;SHT31;51487;52.266;10.542;2023-05-03T06:28:18;7.70;72.82
64961;SHT31;51487;52.266;10.542;2023-05-03T06:30:50;7.67;72.25
64961;SHT31;51487;52.266;10.542;2023-05-03T06:33:16;7.76;71.97
64961;SHT31;51487;52.266;10.542;2023-05-03T06:35:42;7.49;71.29
64961;SHT31;51487;52.266;10.542;2023-05-03T06:38:09;7.52;71.82
64961;SHT31;51487;52.266;10.542;2023-05-03T06:40:36;7.71;72.05
64961;SHT31;51487;52.266;10.542;2023-05-03T06:43:01;7.99;71.85
64961;SHT31;51487;52.266;10.542;2023-05-03T06:45:27;8.21;71.18
64961;SHT31;51487;52.266;10.542;2023-05-03T06:47:52;8.29;70.79
64961;SHT31;51487;52.266;10.542;2023-05-03T06:50:18;8.48;70.14
64961;SHT31;51487;52.266;10.542;2023-05-03T06:52:45;8.79;68.45
64961;SHT31;51487;52.266;10.542;2023-05-03T06:55:11;9.08;66.91
64961;SHT31;51487;52.266;10.542;2023-05-03T06:57:39;9.24;65.57
64961;SHT31;51487;52.266;10.542;2023-05-03T07:00:08;9.06;66.91
64961;SHT31;51487;52.266;10.542;2023-05-03T07:02:33;8.81;67.84
64961;SHT31;51487;52.266;10.542;2023-05-03T07:04:59;8.57;66.73
64961;SHT31;51487;52.266;10.542;2023-05-03T07:07:24;8.86;65.04
64961;SHT31;51487;52.266;10.542;2023-05-03T07:09:50;9.04;65.33
64961;SHT31;51487;52.266;10.542;2023-05-03T07:12:16;8.86;67.20
64961;SHT31;51487;52.266;10.542;2023-05-03T07:14:42;9.14;66.69
64961;SHT31;51487;52.266;10.542;2023-05-03T07:17:08;9.42;65.70
64961;SHT31;51487;52.266;10.542;2023-05-03T07:19:34;9.45;65.13
64961;SHT31;51487;52.266;10.542;2023-05-03T07:22:01;9.39;62.69
64961;SHT31;51487;52.266;10.542;2023-05-03T07:24:28;9.54;62.89
64961;SHT31;51487;52.266;10.542;2023-05-03T07:26:54;9.55;62.35
64961;SHT31;51487;52.266;10.542;2023-05-03T07:29:20;9.71;62.14
64961;SHT31;51487;52.266;10.542;2023-05-03T07:31:46;9.75;61.19
64961;SHT31;51487;52.266;10.542;2023-05-03T07:34:12;9.49;61.24
64961;SHT31;51487;52.266;10.542;2023-05-03T07:36:38;9.25;61.73
64961;SHT31;51487;52.266;10.542;2023-05-03T07:39:03;9.31;62.33
64961;SHT31;51487;52.266;10.542;2023-05-03T07:41:29;8.86;63.65
64961;SHT31;51487;52.266;10.542;2023-05-03T07:43:56;9.14;63.83
64961;SHT31;51487;52.266;10.542;2023-05-03T07:46:22;9.32;63.20
64961;SHT31;51487;52.266;10.542;2023-05-03T07:48:48;9.35;62.98
64961;SHT31;51487;52.266;10.542;2023-05-03T07:51:13;9.36;63.07
64961;SHT31;51487;52.266;10.542;2023-05-03T07:53:39;9.35;63.36
64961;SHT31;51487;52.266;10.542;2023-05-03T07:56:06;9.15;64.05
64961;SHT31;51487;52.266;10.542;2023-05-03T07:58:32;9.58;63.89
64961;SHT31;51487;52.266;10.542;2023-05-03T08:00:59;9.68;63.48
64961;SHT31;51487;52.266;10.542;2023-05-03T08:03:24;9.85;62.61
64961;SHT31;51487;52.266;10.542;2023-05-03T08:05:50;9.92;62.12
64961;SHT31;51487;52.266;10.542;2023-05-03T08:08:17;9.97;61.76
64961;SHT31;51487;52.266;10.542;2023-05-03T08:10:43;9.25;63.81
64961;SHT31;51487;52.266;10.542;2023-05-03T08:13:08;9.68;62.99
64961;SHT31;51487;52.266;10.542;2023-05-03T08:15:34;9.94;62.50
64961;SHT31;51487;52.266;10.542;2023-05-03T08:17:59;10.10;61.85
64961;SHT31;51487;52.266;10.542;2023-05-03T08:20:25;10.16;62.30
64961;SHT31;51487;52.266;10.542;2023-05-03T08:22:55;10.72;60.86
64961;SHT31;51487;52.266;10.542;2023-05-03T08:25:22;10.83;59.93
64961;SHT31;51487;52.266;10.542;2023-05-03T08:27:49;10.79;59.73
64961;SHT31;51487;52.266;10.542;2023-05-03T08:30:14;10.32;60.48
64961;SHT31;51487;52.266;10.542;2023-05-03T08:32:40;10.44;60.83
64961;SHT31;51487;52.266;10.542;2023-05-03T08:35:06;10.43;61.21
64961;SHT31;51487;52.266;10.542;2023-05-03T08:37:39;10.27;61.85
64961;SHT31;51487;52.266;10.542;2023-05-03T08:40:06;10.65;60.86
64961;SHT31;51487;52.266;10.542;2023-05-03T08:42:46;10.58;60.76
64961;SHT31;51487;52.266;10.542;2023-05-03T08:45:14;10.54;60.91
64961;SHT31;51487;52.266;10.542;2023-05-03T08:47:42;9.97;62.30
64961;SHT31;51487;52.266;10.542;2023-05-03T08:50:13;10.16;62.36
64961;SHT31;51487;52.266;10.542;2023-05-03T08:52:41;10.61;61.99
64961;SHT31;51487;52.266;10.542;2023-05-03T08:55:09;11.09;60.28
64961;SHT31;51487;52.266;10.542;2023-05-03T08:57:35;11.19;60.26
64961;SHT31;51487;52.266;10.542;2023-05-03T09:00:01;11.13;59.70
64961;SHT31;51487;52.266;10.542;2023-05-03T09:02:30;11.18;59.28
64961;SHT31;51487;52.266;10.542;2023-05-03T09:04:59;11.11;59.85
64961;SHT31;51487;52.266;10.542;2023-05-03T09:07:25;11.19;59.26
64961;SHT31;51487;52.266;10.542;2023-05-03T09:09:50;11.24;59.12
64961;SHT31;51487;52.266;10.542;2023-05-03T09:12:37;11.37;58.12
64961;SHT31;51487;52.266;10.542;2023-05-03T09:15:06;11.36;57.26
64961;SHT31;51487;52.266;10.542;2023-05-03T09:17:31;11.27;57.15
64961;SHT31;51487;52.266;10.542;2023-05-03T09:19:58;11.36;57.04
64961;SHT31;51487;52.266;10.542;2023-05-03T09:22:27;11.54;57.65
64961;SHT31;51487;52.266;10.542;2023-05-03T09:24:58;11.18;57.87
64961;SHT31;51487;52.266;10.542;2023-05-03T09:27:25;11.41;57.35
64961;SHT31;51487;52.266;10.542;2023-05-03T09:29:54;11.44;56.82
64961;SHT31;51487;52.266;10.542;2023-05-03T09:32:20;11.09;58.37
64961;SHT31;51487;52.266;10.542;2023-05-03T09:34:49;11.20;58.68
64961;SHT31;51487;52.266;10.542;2023-05-03T09:37:15;11.32;58.17
64961;SHT31;51487;52.266;10.542;2023-05-03T09:39:42;11.29;57.73
64961;SHT31;51487;52.266;10.542;2023-05-03T09:42:15;11.30;57.66
64961;SHT31;51487;52.266;10.542;2023-05-03T09:44:46;11.24;57.64
64961;SHT31;51487;52.266;10.542;2023-05-03T09:47:18;11.15;58.48
64961;SHT31;51487;52.266;10.542;2023-05-03T09:49:44;11.18;58.00
64961;SHT31;51487;52.266;10.542;2023-05-03T09:52:10;11.15;57.95
64961;SHT31;51487;52.266;10.542;2023-05-03T09:54:37;11.16;58.20
64961;SHT31;51487;52.266;10.542;2023-05-03T09:57:05;11.09;58.57
64961;SHT31;51487;52.266;10.542;2023-05-03T09:59:36;11.43;58.67
64961;SHT31;51487;52.266;10.542;2023-05-03T10:02:05;11.74;57.08
64961;SHT31;51487;52.266;10.542;2023-05-03T10:04:50;11.78;57.13
64961;SHT31;51487;52.266;10.542;2023-05-03T10:07:21;11.95;56.29
64961;SHT31;51487;52.266;10.542;2023-05-03T10:09:47;11.90;56.58
64961;SHT31;51487;52.266;10.542;2023-05-03T10:12:14;12.08;56.99
64961;SHT31;51487;52.266;10.542;2023-05-03T10:14:46;12.36;56.28
64961;SHT31;51487;52.266;10.542;2023-05-03T10:17:34;11.56;57.20
64961;SHT31;51487;52.266;10.542;2023-05-03T10:25:29;12.33;57.05
64961;SHT31;51487;52.266;10.542;2023-05-03T10:28:03;12.11;57.28
64961;SHT31;51487;52.266;10.542;2023-05-03T10:30:35;12.08;56.87
64961;SHT31;51487;52.266;10.542;2023-05-03T10:35:39;12.08;56.99
64961;SHT31;51487;52.266;10.542;2023-05-03T10:38:23;12.19;57.60
64961;SHT31;51487;52.266;10.542;2023-05-03T10:40:50;12.25;56.96
64961;SHT31;51487;52.266;10.542;2023-05-03T10:46:02;12.30;56.91
64961;SHT31;51487;52.266;10.542;2023-05-03T10:48:29;12.21;57.78
64961;SHT31;51487;52.266;10.542;2023-05-03T10:50:56;12.14;55.79
64961;SHT31;51487;52.266;10.542;2023-05-03T10:53:39;11.97;56.58
64961;SHT31;51487;52.266;10.542;2023-05-03T10:56:06;11.64;56.84
64961;SHT31;51487;52.266;10.542;2023-05-03T10:58:47;11.24;57.43
64961;SHT31;51487;52.266;10.542;2023-05-03T11:01:17;11.54;57.30
64961;SHT31;51487;52.266;10.542;2023-05-03T11:06:46;11.54;57.70
64961;SHT31;51487;52.266;10.542;2023-05-03T11:09:13;11.69;56.93
64961;SHT31;51487;52.266;10.542;2023-05-03T11:11:41;11.70;56.15
64961;SHT31;51487;52.266;10.542;2023-05-03T11:14:08;11.70;56.42
64961;SHT31;51487;52.266;10.542;2023-05-03T11:16:35;11.26;56.61
64961;SHT31;51487;52.266;10.542;2023-05-03T11:19:02;11.12;57.50
64961;SHT31;51487;52.266;10.542;2023-05-03T11:21:28;11.43;57.48
64961;SHT31;51487;52.266;10.542;2023-05-03T11:23:53;11.51;56.23
64961;SHT31;51487;52.266;10.542;2023-05-03T11:26:19;11.53;56.46
64961;SHT31;51487;52.266;10.542;2023-05-03T11:28:50;11.53;56.39
64961;SHT31;51487;52.266;10.542;2023-05-03T11:31:15;11.84;56.59
64961;SHT31;51487;52.266;10.542;2023-05-03T11:33:41;12.14;56.09
64961;SHT31;51487;52.266;10.542;2023-05-03T11:36:08;12.40;55.45
64961;SHT31;51487;52.266;10.542;2023-05-03T11:38:36;12.48;54.77
64961;SHT31;51487;52.266;10.542;2023-05-03T11:41:15;12.59;54.77
64961;SHT31;51487;52.266;10.542;2023-05-03T11:43:48;12.49;54.60
64961;SHT31;51487;52.266;10.542;2023-05-03T11:46:21;12.39;54.79
64961;SHT31;51487;52.266;10.542;2023-05-03T11:48:48;12.46;55.01
64961;SHT31;51487;52.266;10.542;2023-05-03T11:51:14;12.43;54.58
64961;SHT31;51487;52.266;10.542;2023-05-03T11:53:45;12.32;54.96
64961;SHT31;51487;52.266;10.542;2023-05-03T11:56:13;12.53;54.18
64961;SHT31;51487;52.266;10.542;2023-05-03T11:58:53;12.28;54.67
64961;SHT31;51487;52.266;10.542;2023-05-03T12:01:23;12.33;55.32
64961;SHT31;51487;52.266;10.542;2023-05-03T12:04:00;12.22;54.91
64961;SHT31;51487;52.266;10.542;2023-05-03T12:06:28;11.88;55.74
64961;SHT31;51487;52.266;10.542;2023-05-03T12:08:55;12.02;55.55
64961;SHT31;51487;52.266;10.542;2023-05-03T12:11:21;11.98;55.34
64961;SHT31;51487;52.266;10.542;2023-05-03T12:13:59;12.17;55.20
64961;SHT31;51487;52.266;10.542;2023-05-03T12:16:25;12.50;55.33
64961;SHT31;51487;52.266;10.542;2023-05-03T12:18:57;12.66;55.23
64961;SHT31;51487;52.266;10.542;2023-05-03T12:21:44;12.84;55.00
64961;SHT31;51487;52.266;10.542;2023-05-03T12:24:10;12.94;54.10
64961;SHT31;51487;52.266;10.542;2023-05-03T12:26:35;12.80;54.39
64961;SHT31;51487;52.266;10.542;2023-05-03T12:29:01;12.67;54.37
64961;SHT31;51487;52.266;10.542;2023-05-03T12:31:26;12.67;54.73
64961;SHT31;51487;52.266;10.542;2023-05-03T12:33:53;12.53;55.42
64961;SHT31;51487;52.266;10.542;2023-05-03T12:36:19;12.38;55.49
64961;SHT31;51487;52.266;10.542;2023-05-03T12:38:46;12.63;55.87
64961;SHT31;51487;52.266;10.542;2023-05-03T12:41:12;12.81;55.29
64961;SHT31;51487;52.266;10.542;2023-05-03T12:43:37;12.80;54.80
64961;SHT31;51487;52.266;10.542;2023-05-03T12:46:03;12.91;55.23
64961;SHT31;51487;52.266;10.542;2023-05-03T12:48:29;13.17;54.81
64961;SHT31;51487;52.266;10.542;2023-05-03T12:50:56;13.10;54.45
64961;SHT31;51487;52.266;10.542;2023-05-03T12:53:21;13.22;55.20
64961;SHT31;51487;52.266;10.542;2023-05-03T12:55:47;13.22;54.20
64961;SHT31;51487;52.266;10.542;2023-05-03T12:58:13;13.31;54.92
64961;SHT31;51487;52.266;10.542;2023-05-03T13:00:38;13.46;54.75
64961;SHT31;51487;52.266;10.542;2023-05-03T13:03:04;13.34;54.09
64961;SHT31;51487;52.266;10.542;2023-05-03T13:05:30;13.32;54.01
64961;SHT31;51487;52.266;10.542;2023-05-03T13:07:55;13.54;54.26
64961;SHT31;51487;52.266;10.542;2023-05-03T13:10:23;13.61;53.47
64961;SHT31;51487;52.266;10.542;2023-05-03T13:12:51;13.79;53.01
64961;SHT31;51487;52.266;10.542;2023-05-03T13:15:18;13.85;53.08
64961;SHT31;51487;52.266;10.542;2023-05-03T13:17:44;13.96;52.73
64961;SHT31;51487;52.266;10.542;2023-05-03T13:20:10;14.09;52.57
64961;SHT31;51487;52.266;10.542;2023-05-03T13:22:37;14.13;51.38
64961;SHT31;51487;52.266;10.542;2023-05-03T13:25:03;13.95;52.68
64961;SHT31;51487;52.266;10.542;2023-05-03T13:27:29;13.93;52.15
64961;SHT31;51487;52.266;10.542;2023-05-03T13:29:55;14.00;52.37
64961;SHT31;51487;52.266;10.542;2023-05-03T13:32:21;14.09;52.14
64961;SHT31;51487;52.266;10.542;2023-05-03T13:34:46;14.09;52.14
64961;SHT31;51487;52.266;10.542;2023-05-03T13:37:12;14.12;52.31
64961;SHT31;51487;52.266;10.542;2023-05-03T13:39:42;13.99;52.07
64961;SHT31;51487;52.266;10.542;2023-05-03T13:42:08;14.03;52.20
64961;SHT31;51487;52.266;10.542;2023-05-03T13:44:34;14.14;52.18
64961;SHT31;51487;52.266;10.542;2023-05-03T13:46:59;14.12;51.90
64961;SHT31;51487;52.266;10.542;2023-05-03T13:49:25;13.49;53.20
64961;SHT31;51487;52.266;10.542;2023-05-03T13:51:51;13.21;53.77
64961;SHT31;51487;52.266;10.542;2023-05-03T13:54:17;13.49;54.05
64961;SHT31;51487;52.266;10.542;2023-05-03T13:56:42;13.65;53.74
64961;SHT31;51487;52.266;10.542;2023-05-03T13:59:11;14.06;53.04
64961;SHT31;51487;52.266;10.542;2023-05-03T14:01:38;14.33;51.84
64961;SHT31;51487;52.266;10.542;2023-05-03T14:04:04;14.26;51.87
64961;SHT31;51487;52.266;10.542;2023-05-03T14:06:30;13.95;52.97
64961;SHT31;51487;52.266;10.542;2023-05-03T14:08:56;14.10;52.38
64961;SHT31;51487;52.266;10.542;2023-05-03T14:11:22;14.40;52.38
64961;SHT31;51487;52.266;10.542;2023-05-03T14:13:53;14.64;51.89
64961;SHT31;51487;52.266;10.542;2023-05-03T14:16:21;14.91;51.80
64961;SHT31;51487;52.266;10.542;2023-05-03T14:18:48;15.09;50.75
64961;SHT31;51487;52.266;10.542;2023-05-03T14:21:15;15.16;50.62
64961;SHT31;51487;52.266;10.542;2023-05-03T14:23:48;15.23;50.40
64961;SHT31;51487;52.266;10.542;2023-05-03T14:26:19;15.32;50.47
64961;SHT31;51487;52.266;10.542;2023-05-03T14:28:44;15.50;49.44
64961;SHT31;51487;52.266;10.542;2023-05-03T14:31:11;15.57;49.39
64961;SHT31;51487;52.266;10.542;2023-05-03T14:33:38;15.77;48.76
64961;SHT31;51487;52.266;10.542;2023-05-03T14:36:06;15.67;49.96
64961;SHT31;51487;52.266;10.542;2023-05-03T14:38:33;15.55;50.56
64961;SHT31;51487;52.266;10.542;2023-05-03T14:40:59;15.44;49.33
64961;SHT31;51487;52.266;10.542;2023-05-03T14:43:24;15.39;49.63
64961;SHT31;51487;52.266;10.542;2023-05-03T14:45:50;15.10;50.14
64961;SHT31;51487;52.266;10.542;2023-05-03T14:48:16;15.00;51.08
64961;SHT31;51487;52.266;10.542;2023-05-03T14:50:47;15.06;51.62
64961;SHT31;51487;52.266;10.542;2023-05-03T14:53:13;15.00;51.25
64961;SHT31;51487;52.266;10.542;2023-05-03T14:55:39;15.10;50.72
64961;SHT31;51487;52.266;10.542;2023-05-03T14:58:04;15.02;50.10
64961;SHT31;51487;52.266;10.542;2023-05-03T15:00:30;14.98;50.26
64961;SHT31;51487;52.266;10.542;2023-05-03T15:02:55;14.89;50.83
64961;SHT31;51487;52.266;10.542;2023-05-03T15:05:21;15.12;51.04
64961;SHT31;51487;52.266;10.542;2023-05-03T15:07:48;15.20;50.47
64961;SHT31;51487;52.266;10.542;2023-05-03T15:10:14;15.22;50.09
64961;SHT31;51487;52.266;10.542;2023-05-03T15:12:39;15.37;49.58
64961;SHT31;51487;52.266;10.542;2023-05-03T15:15:07;15.44;49.48
64961;SHT31;51487;52.266;10.542;2023-05-03T15:17:34;15.53;48.90
64961;SHT31;51487;52.266;10.542;2023-05-03T15:20:00;15.61;49.49
64961;SHT31;51487;52.266;10.542;2023-05-03T15:22:26;15.55;49.65
64961;SHT31;51487;52.266;10.542;2023-05-03T15:24:51;15.57;49.48
64961;SHT31;51487;52.266;10.542;2023-05-03T15:27:17;15.68;48.59
64961;SHT31;51487;52.266;10.542;2023-05-03T15:29:42;15.64;49.17
64961;SHT31;51487;52.266;10.542;2023-05-03T15:32:08;15.67;49.18
64961;SHT31;51487;52.266;10.542;2023-05-03T15:34:33;15.75;49.09
64961;SHT31;51487;52.266;10.542;2023-05-03T15:37:00;15.85;48.33
64961;SHT31;51487;52.266;10.542;2023-05-03T15:39:25;16.12;48.37
64961;SHT31;51487;52.266;10.542;2023-05-03T15:41:51;16.39;47.66
64961;SHT31;51487;52.266;10.542;2023-05-03T15:44:16;16.59;48.43